sensor_id;sensor_type;location;lat;lon;timestamp;pressure;altitude;pressure_sealevel;temperature;humidity
4617;BME280;2321;42.704;23.384;2023-02-28T00:01:19;95896.19;;;8.09;nan
4617;BME280;2321;42.704;23.384;2023-02-28T00:03:46;95895.69;;;8.13;nan
4617;BME280;2321;42.704;23.384;2023-02-28T00:06:13;95905.66;;;8.11;nan
4617;BME280;2321;42.704;23.384;2023-02-28T00:08:41;95907.13;;;8.14;nan
4617;BME280;2321;42.704;23.384;2023-02-28T00:11:09;95908.44;;;8.10;nan
4617;BME280;2321;42.704;23.384;2023-02-28T00:13:39;95900.69;;;8.16;nan
4617;BME280;2321;42.704;23.384;2023-02-28T00:16:09;95904.16;;;8.25;nan
4617;BME280;2321;42.704;23.384;2023-02-28T00:18:36;95907.78;;;8.16;nan
4617;BME280;2321;42.704;23.384;2023-02-28T00:21:04;95919.28;;;8.25;nan
4617;BME280;2321;42.704;23.384;2023-02-28T00:23:31;95912.47;;;8.31;nan
4617;BME280;2321;42.704;23.384;2023-02-28T00:25:59;95919.75;;;8.28;nan
4617;BME280;2321;42.704;23.384;2023-02-28T00:28:26;95925.06;;;8.28;nan
4617;BME280;2321;42.704;23.384;2023-02-28T00:30:53;95934.50;;;8.31;nan
4617;BME280;2321;42.704;23.384;2023-02-28T00:33:20;95924.41;;;8.35;nan
4617;BME280;2321;42.704;23.384;2023-02-28T00:35:47;95920.59;;;8.29;nan
4617;BME280;2321;42.704;23.384;2023-02-28T00:38:14;95923.88;;;8.31;nan
4617;BME280;2321;42.704;23.384;2023-02-28T00:40:42;95920.91;;;8.26;nan
4617;BME280;2321;42.704;23.384;2023-02-28T00:43:10;95920.91;;;8.34;nan
4617;BME280;2321;42.704;23.384;2023-02-28T00:45:37;95922.06;;;8.32;nan
4617;BME280;2321;42.704;23.384;2023-02-28T00:48:04;95927.38;;;8.23;nan
4617;BME280;2321;42.704;23.384;2023-02-28T00:50:31;95917.44;;;8.17;nan
4617;BME280;2321;42.704;23.384;2023-02-28T00:52:58;95901.66;;;8.07;nan
4617;BME280;2321;42.704;23.384;2023-02-28T00:55:25;95905.31;;;8.06;nan
4617;BME280;2321;42.704;23.384;2023-02-28T00:57:52;95901.00;;;7.97;nan
4617;BME280;2321;42.704;23.384;2023-02-28T01:00:20;95887.88;;;7.87;nan
4617;BME280;2321;42.704;23.384;2023-02-28T01:02:47;95896.50;;;7.89;nan
4617;BME280;2321;42.704;23.384;2023-02-28T01:05:14;95912.06;;;7.92;nan
4617;BME280;2321;42.704;23.384;2023-02-28T01:07:41;95920.53;;;7.95;nan
4617;BME280;2321;42.704;23.384;2023-02-28T01:10:09;95912.91;;;7.92;nan
4617;BME280;2321;42.704;23.384;2023-02-28T01:12:36;95904.31;;;7.99;nan
4617;BME280;2321;42.704;23.384;2023-02-28T01:15:04;95902.97;;;7.94;nan
4617;BME280;2321;42.704;23.384;2023-02-28T01:17:32;95903.59;;;7.88;nan
4617;BME280;2321;42.704;23.384;2023-02-28T01:19:59;95899.63;;;7.76;nan
4617;BME280;2321;42.704;23.384;2023-02-28T01:22:26;95896.78;;;7.69;nan
4617;BME280;2321;42.704;23.384;2023-02-28T01:24:53;95894.13;;;7.69;nan
4617;BME280;2321;42.704;23.384;2023-02-28T01:27:20;95902.41;;;7.57;nan
4617;BME280;2321;42.704;23.384;2023-02-28T01:29:47;95891.81;;;7.66;nan
4617;BME280;2321;42.704;23.384;2023-02-28T01:32:14;95895.09;;;7.59;nan
4617;BME280;2321;42.704;23.384;2023-02-28T01:34:42;95889.81;;;7.68;nan
4617;BME280;2321;42.704;23.384;2023-02-28T01:37:09;95891.63;;;7.67;nan
4617;BME280;2321;42.704;23.384;2023-02-28T01:39:35;95896.25;;;7.57;nan
4617;BME280;2321;42.704;23.384;2023-02-28T01:42:03;95901.03;;;7.45;nan
4617;BME280;2321;42.704;23.384;2023-02-28T01:44:57;95897.66;;;7.34;nan
4617;BME280;2321;42.704;23.384;2023-02-28T01:47:25;95902.41;;;7.22;nan
4617;BME280;2321;42.704;23.384;2023-02-28T01:49:55;95899.44;;;7.25;nan
4617;BME280;2321;42.704;23.384;2023-02-28T01:52:22;95904.97;;;7.40;nan
4617;BME280;2321;42.704;23.384;2023-02-28T01:54:52;95897.03;;;7.40;nan
4617;BME280;2321;42.704;23.384;2023-02-28T01:57:24;95892.75;;;7.48;nan
4617;BME280;2321;42.704;23.384;2023-02-28T01:59:54;95900.00;;;7.37;nan
4617;BME280;2321;42.704;23.384;2023-02-28T02:02:25;95900.03;;;7.11;nan
4617;BME280;2321;42.704;23.384;2023-02-28T02:04:56;95902.38;;;7.14;nan
4617;BME280;2321;42.704;23.384;2023-02-28T02:07:29;95897.06;;;7.14;nan
4617;BME280;2321;42.704;23.384;2023-02-28T02:10:02;95891.59;;;7.15;nan
4617;BME280;2321;42.704;23.384;2023-02-28T02:12:47;95905.16;;;7.12;nan
4617;BME280;2321;42.704;23.384;2023-02-28T02:15:21;95900.16;;;7.01;nan
4617;BME280;2321;42.704;23.384;2023-02-28T02:17:56;95891.22;;;7.02;nan
4617;BME280;2321;42.704;23.384;2023-02-28T02:20:58;95889.59;;;7.09;nan
4617;BME280;2321;42.704;23.384;2023-02-28T02:26:43;95886.41;;;7.05;nan
4617;BME280;2321;42.704;23.384;2023-02-28T02:29:36;95896.00;;;6.98;nan
4617;BME280;2321;42.704;23.384;2023-02-28T02:35:12;95897.22;;;7.12;nan
4617;BME280;2321;42.704;23.384;2023-02-28T02:37:43;95903.22;;;7.14;nan
4617;BME280;2321;42.704;23.384;2023-02-28T02:40:14;95906.41;;;7.26;nan
4617;BME280;2321;42.704;23.384;2023-02-28T02:42:50;95911.50;;;7.19;nan
4617;BME280;2321;42.704;23.384;2023-02-28T02:45:22;95913.50;;;7.17;nan
4617;BME280;2321;42.704;23.384;2023-02-28T02:47:51;95915.13;;;7.18;nan
4617;BME280;2321;42.704;23.384;2023-02-28T02:50:24;95914.03;;;7.29;nan
4617;BME280;2321;42.704;23.384;2023-02-28T02:52:56;95910.44;;;7.39;nan
4617;BME280;2321;42.704;23.384;2023-02-28T02:55:25;95915.22;;;7.35;nan
4617;BME280;2321;42.704;23.384;2023-02-28T02:57:54;95917.00;;;7.26;nan
4617;BME280;2321;42.704;23.384;2023-02-28T03:00:25;95920.75;;;7.15;nan
4617;BME280;2321;42.704;23.384;2023-02-28T03:02:54;95927.19;;;7.13;nan
4617;BME280;2321;42.704;23.384;2023-02-28T03:05:26;95927.84;;;7.15;nan
4617;BME280;2321;42.704;23.384;2023-02-28T03:07:53;95928.22;;;7.20;nan
4617;BME280;2321;42.704;23.384;2023-02-28T03:10:32;95935.00;;;7.14;nan
4617;BME280;2321;42.704;23.384;2023-02-28T03:13:39;95936.09;;;7.12;nan
4617;BME280;2321;42.704;23.384;2023-02-28T03:16:22;95942.31;;;7.21;nan
4617;BME280;2321;42.704;23.384;2023-02-28T03:19:00;95954.66;;;7.12;nan
4617;BME280;2321;42.704;23.384;2023-02-28T03:21:34;95955.22;;;7.24;nan
4617;BME280;2321;42.704;23.384;2023-02-28T03:24:05;95944.47;;;7.25;nan
4617;BME280;2321;42.704;23.384;2023-02-28T03:26:39;95951.94;;;7.30;nan
4617;BME280;2321;42.704;23.384;2023-02-28T03:29:15;95961.88;;;7.28;nan
4617;BME280;2321;42.704;23.384;2023-02-28T03:31:46;95952.75;;;7.30;nan
4617;BME280;2321;42.704;23.384;2023-02-28T03:34:19;95965.16;;;7.30;nan
4617;BME280;2321;42.704;23.384;2023-02-28T03:36:52;95972.63;;;7.26;nan
4617;BME280;2321;42.704;23.384;2023-02-28T03:39:23;95965.69;;;7.34;nan
4617;BME280;2321;42.704;23.384;2023-02-28T03:41:57;95966.31;;;7.27;nan
4617;BME280;2321;42.704;23.384;2023-02-28T03:44:28;95959.41;;;7.35;nan
4617;BME280;2321;42.704;23.384;2023-02-28T03:47:00;95970.22;;;7.41;nan
4617;BME280;2321;42.704;23.384;2023-02-28T03:49:32;95970.16;;;7.33;nan
4617;BME280;2321;42.704;23.384;2023-02-28T03:52:04;95970.09;;;7.16;nan
4617;BME280;2321;42.704;23.384;2023-02-28T03:54:38;95975.69;;;7.13;nan
4617;BME280;2321;42.704;23.384;2023-02-28T03:57:12;95976.53;;;7.14;nan
4617;BME280;2321;42.704;23.384;2023-02-28T03:59:44;95975.47;;;7.06;nan
4617;BME280;2321;42.704;23.384;2023-02-28T04:02:13;95981.28;;;7.10;nan
4617;BME280;2321;42.704;23.384;2023-02-28T04:04:40;95980.78;;;7.06;nan
4617;BME280;2321;42.704;23.384;2023-02-28T04:07:15;95983.41;;;7.06;nan
4617;BME280;2321;42.704;23.384;2023-02-28T04:09:43;95984.56;;;7.04;nan
4617;BME280;2321;42.704;23.384;2023-02-28T04:12:10;95971.69;;;7.09;nan
4617;BME280;2321;42.704;23.384;2023-02-28T04:14:36;95975.06;;;7.19;nan
4617;BME280;2321;42.704;23.384;2023-02-28T04:17:03;95967.56;;;7.15;nan
4617;BME280;2321;42.704;23.384;2023-02-28T04:19:30;95976.00;;;7.10;nan
4617;BME280;2321;42.704;23.384;2023-02-28T04:21:57;95984.69;;;7.02;nan
4617;BME280;2321;42.704;23.384;2023-02-28T04:24:27;95977.09;;;6.99;nan
4617;BME280;2321;42.704;23.384;2023-02-28T04:26:55;95965.50;;;7.00;nan
4617;BME280;2321;42.704;23.384;2023-02-28T04:29:24;95977.34;;;7.14;nan
4617;BME280;2321;42.704;23.384;2023-02-28T04:31:51;95975.22;;;7.18;nan
4617;BME280;2321;42.704;23.384;2023-02-28T04:34:19;95975.47;;;7.06;nan
4617;BME280;2321;42.704;23.384;2023-02-28T04:36:46;95982.28;;;7.09;nan
4617;BME280;2321;42.704;23.384;2023-02-28T04:39:14;95987.16;;;6.95;nan
4617;BME280;2321;42.704;23.384;2023-02-28T04:41:44;95977.75;;;6.74;nan
4617;BME280;2321;42.704;23.384;2023-02-28T04:44:11;95983.78;;;6.67;nan
4617;BME280;2321;42.704;23.384;2023-02-28T04:46:38;95988.84;;;6.60;nan
4617;BME280;2321;42.704;23.384;2023-02-28T04:49:05;95990.75;;;6.68;nan
4617;BME280;2321;42.704;23.384;2023-02-28T04:51:31;95990.81;;;6.76;nan
4617;BME280;2321;42.704;23.384;2023-02-28T04:53:58;95998.19;;;6.91;nan
4617;BME280;2321;42.704;23.384;2023-02-28T04:56:25;95988.38;;;6.83;nan
4617;BME280;2321;42.704;23.384;2023-02-28T04:58:53;95994.13;;;6.78;nan
4617;BME280;2321;42.704;23.384;2023-02-28T05:01:22;95994.53;;;6.83;nan
4617;BME280;2321;42.704;23.384;2023-02-28T05:03:50;95988.53;;;6.81;nan
4617;BME280;2321;42.704;23.384;2023-02-28T05:06:17;95988.97;;;6.95;nan
4617;BME280;2321;42.704;23.384;2023-02-28T05:08:45;95993.44;;;6.94;nan
4617;BME280;2321;42.704;23.384;2023-02-28T05:11:18;95995.94;;;6.96;nan
4617;BME280;2321;42.704;23.384;2023-02-28T05:13:45;95997.44;;;6.99;nan
4617;BME280;2321;42.704;23.384;2023-02-28T05:16:14;96000.00;;;6.90;nan
4617;BME280;2321;42.704;23.384;2023-02-28T05:18:42;95994.78;;;6.99;nan
4617;BME280;2321;42.704;23.384;2023-02-28T05:21:23;96005.22;;;7.00;nan
4617;BME280;2321;42.704;23.384;2023-02-28T05:23:51;96006.22;;;6.99;nan
4617;BME280;2321;42.704;23.384;2023-02-28T05:26:18;96001.44;;;7.03;nan
4617;BME280;2321;42.704;23.384;2023-02-28T05:28:45;96006.41;;;7.06;nan
4617;BME280;2321;42.704;23.384;2023-02-28T05:31:13;96014.75;;;7.11;nan
4617;BME280;2321;42.704;23.384;2023-02-28T05:33:40;96019.66;;;7.06;nan
4617;BME280;2321;42.704;23.384;2023-02-28T05:36:08;96022.16;;;7.07;nan
4617;BME280;2321;42.704;23.384;2023-02-28T05:38:35;96027.81;;;7.13;nan
4617;BME280;2321;42.704;23.384;2023-02-28T05:41:05;96025.44;;;7.01;nan
4617;BME280;2321;42.704;23.384;2023-02-28T05:43:32;96028.78;;;7.12;nan
4617;BME280;2321;42.704;23.384;2023-02-28T05:45:59;96024.94;;;7.06;nan
4617;BME280;2321;42.704;23.384;2023-02-28T05:48:29;96028.59;;;7.05;nan
4617;BME280;2321;42.704;23.384;2023-02-28T05:50:57;96020.44;;;6.98;nan
4617;BME280;2321;42.704;23.384;2023-02-28T05:53:24;96031.09;;;7.06;nan
4617;BME280;2321;42.704;23.384;2023-02-28T05:55:51;96036.25;;;7.08;nan
4617;BME280;2321;42.704;23.384;2023-02-28T05:58:18;96041.84;;;7.05;nan
4617;BME280;2321;42.704;23.384;2023-02-28T06:00:45;96047.34;;;7.12;nan
4617;BME280;2321;42.704;23.384;2023-02-28T06:03:19;96046.72;;;7.18;nan
4617;BME280;2321;42.704;23.384;2023-02-28T06:05:48;96039.38;;;7.12;nan
4617;BME280;2321;42.704;23.384;2023-02-28T06:08:15;96035.81;;;7.21;nan
4617;BME280;2321;42.704;23.384;2023-02-28T06:10:42;96040.81;;;7.24;nan
4617;BME280;2321;42.704;23.384;2023-02-28T06:13:09;96041.50;;;7.26;nan
4617;BME280;2321;42.704;23.384;2023-02-28T06:15:37;96046.31;;;7.31;nan
4617;BME280;2321;42.704;23.384;2023-02-28T06:18:04;96045.34;;;7.32;nan
4617;BME280;2321;42.704;23.384;2023-02-28T06:20:31;96037.09;;;7.35;nan
4617;BME280;2321;42.704;23.384;2023-02-28T06:22:59;96043.72;;;7.39;nan
4617;BME280;2321;42.704;23.384;2023-02-28T06:25:27;96036.59;;;7.40;nan
4617;BME280;2321;42.704;23.384;2023-02-28T06:27:54;96039.94;;;7.42;nan
4617;BME280;2321;42.704;23.384;2023-02-28T06:30:22;96044.50;;;7.32;nan
4617;BME280;2321;42.704;23.384;2023-02-28T06:32:50;96044.47;;;7.23;nan
4617;BME280;2321;42.704;23.384;2023-02-28T06:35:17;96046.25;;;7.23;nan
4617;BME280;2321;42.704;23.384;2023-02-28T06:37:44;96052.31;;;7.15;nan
4617;BME280;2321;42.704;23.384;2023-02-28T06:40:14;96052.94;;;7.08;nan
4617;BME280;2321;42.704;23.384;2023-02-28T06:42:41;96056.53;;;6.99;nan
4617;BME280;2321;42.704;23.384;2023-02-28T06:45:08;96053.88;;;6.99;nan
4617;BME280;2321;42.704;23.384;2023-02-28T06:47:36;96059.69;;;7.03;nan
4617;BME280;2321;42.704;23.384;2023-02-28T06:50:04;96056.19;;;7.02;nan
4617;BME280;2321;42.704;23.384;2023-02-28T06:52:31;96059.97;;;7.00;nan
4617;BME280;2321;42.704;23.384;2023-02-28T06:55:02;96053.41;;;7.04;nan
4617;BME280;2321;42.704;23.384;2023-02-28T06:57:31;96051.22;;;6.99;nan
4617;BME280;2321;42.704;23.384;2023-02-28T06:59:58;96059.97;;;7.00;nan
4617;BME280;2321;42.704;23.384;2023-02-28T07:02:25;96054.50;;;6.93;nan
4617;BME280;2321;42.704;23.384;2023-02-28T07:04:52;96058.66;;;6.95;nan
4617;BME280;2321;42.704;23.384;2023-02-28T07:07:19;96058.25;;;6.90;nan
4617;BME280;2321;42.704;23.384;2023-02-28T07:09:46;96058.78;;;6.94;nan
4617;BME280;2321;42.704;23.384;2023-02-28T07:12:13;96052.75;;;7.02;nan
4617;BME280;2321;42.704;23.384;2023-02-28T07:14:41;96057.25;;;7.10;nan
4617;BME280;2321;42.704;23.384;2023-02-28T07:17:09;96055.06;;;7.23;nan
4617;BME280;2321;42.704;23.384;2023-02-28T07:19:37;96048.28;;;7.29;nan
4617;BME280;2321;42.704;23.384;2023-02-28T07:22:05;96050.84;;;7.39;nan
4617;BME280;2321;42.704;23.384;2023-02-28T07:24:32;96046.75;;;7.45;nan
4617;BME280;2321;42.704;23.384;2023-02-28T07:26:58;96045.44;;;7.49;nan
4617;BME280;2321;42.704;23.384;2023-02-28T07:29:26;96055.78;;;7.60;nan
4617;BME280;2321;42.704;23.384;2023-02-28T07:31:55;96049.50;;;7.70;nan
4617;BME280;2321;42.704;23.384;2023-02-28T07:34:22;96045.88;;;7.71;nan
4617;BME280;2321;42.704;23.384;2023-02-28T07:36:49;96014.31;;;7.51;nan
4617;BME280;2321;42.704;23.384;2023-02-28T07:39:19;96051.53;;;7.76;nan
4617;BME280;2321;42.704;23.384;2023-02-28T07:41:46;96053.56;;;7.82;nan
4617;BME280;2321;42.704;23.384;2023-02-28T07:44:13;96048.44;;;7.89;nan
4617;BME280;2321;42.704;23.384;2023-02-28T07:46:40;96052.81;;;7.99;nan
4617;BME280;2321;42.704;23.384;2023-02-28T07:49:08;96039.75;;;8.05;nan
4617;BME280;2321;42.704;23.384;2023-02-28T07:51:35;96049.53;;;8.13;nan
4617;BME280;2321;42.704;23.384;2023-02-28T07:54:02;96046.44;;;8.26;nan
4617;BME280;2321;42.704;23.384;2023-02-28T07:56:29;96045.63;;;8.34;nan
4617;BME280;2321;42.704;23.384;2023-02-28T07:58:56;96049.78;;;8.37;nan
4617;BME280;2321;42.704;23.384;2023-02-28T08:01:23;96043.66;;;8.45;nan
4617;BME280;2321;42.704;23.384;2023-02-28T08:03:50;96045.72;;;8.59;nan
4617;BME280;2321;42.704;23.384;2023-02-28T08:06:19;96040.56;;;8.66;nan
4617;BME280;2321;42.704;23.384;2023-02-28T08:08:47;96032.97;;;8.80;nan
4617;BME280;2321;42.704;23.384;2023-02-28T08:11:15;96045.91;;;8.91;nan
4617;BME280;2321;42.704;23.384;2023-02-28T08:13:42;96047.25;;;9.04;nan
4617;BME280;2321;42.704;23.384;2023-02-28T08:16:10;96044.59;;;9.12;nan
4617;BME280;2321;42.704;23.384;2023-02-28T08:18:39;96044.41;;;9.22;nan
4617;BME280;2321;42.704;23.384;2023-02-28T08:21:07;96043.38;;;9.40;nan
4617;BME280;2321;42.704;23.384;2023-02-28T08:23:35;96042.19;;;9.51;nan
4617;BME280;2321;42.704;23.384;2023-02-28T08:26:03;96026.41;;;9.58;nan
4617;BME280;2321;42.704;23.384;2023-02-28T08:28:30;96047.13;;;9.79;nan
4617;BME280;2321;42.704;23.384;2023-02-28T08:30:57;96038.06;;;9.97;nan
4617;BME280;2321;42.704;23.384;2023-02-28T08:33:24;96042.84;;;10.10;nan
4617;BME280;2321;42.704;23.384;2023-02-28T08:35:55;96040.97;;;10.19;nan
4617;BME280;2321;42.704;23.384;2023-02-28T08:38:23;96036.97;;;10.23;nan
4617;BME280;2321;42.704;23.384;2023-02-28T08:40:57;96041.75;;;10.28;nan
4617;BME280;2321;42.704;23.384;2023-02-28T08:43:24;96040.22;;;10.34;nan
4617;BME280;2321;42.704;23.384;2023-02-28T08:45:51;96039.03;;;10.45;nan
4617;BME280;2321;42.704;23.384;2023-02-28T08:48:18;96048.47;;;10.56;nan
4617;BME280;2321;42.704;23.384;2023-02-28T08:50:54;96045.38;;;10.67;nan
4617;BME280;2321;42.704;23.384;2023-02-28T08:53:21;96047.69;;;10.71;nan
4617;BME280;2321;42.704;23.384;2023-02-28T08:55:57;96037.66;;;10.81;nan
4617;BME280;2321;42.704;23.384;2023-02-28T08:58:24;96048.16;;;10.98;nan
4617;BME280;2321;42.704;23.384;2023-02-28T09:00:51;96045.34;;;10.99;nan
4617;BME280;2321;42.704;23.384;2023-02-28T09:03:18;96045.47;;;11.06;nan
4617;BME280;2321;42.704;23.384;2023-02-28T09:05:52;96049.72;;;11.16;nan
4617;BME280;2321;42.704;23.384;2023-02-28T09:08:19;96054.78;;;11.26;nan
4617;BME280;2321;42.704;23.384;2023-02-28T09:10:45;96056.44;;;11.27;nan
4617;BME280;2321;42.704;23.384;2023-02-28T09:13:14;96055.72;;;11.33;nan
4617;BME280;2321;42.704;23.384;2023-02-28T09:15:41;96056.00;;;11.38;nan
4617;BME280;2321;42.704;23.384;2023-02-28T09:18:07;96054.28;;;11.46;nan
4617;BME280;2321;42.704;23.384;2023-02-28T09:20:37;96051.41;;;11.47;nan
4617;BME280;2321;42.704;23.384;2023-02-28T09:23:04;96050.81;;;11.60;nan
4617;BME280;2321;42.704;23.384;2023-02-28T09:25:31;96055.78;;;11.63;nan
4617;BME280;2321;42.704;23.384;2023-02-28T09:27:57;96049.91;;;11.68;nan
4617;BME280;2321;42.704;23.384;2023-02-28T09:30:26;96051.75;;;11.68;nan
4617;BME280;2321;42.704;23.384;2023-02-28T09:32:53;96054.41;;;11.68;nan
4617;BME280;2321;42.704;23.384;2023-02-28T09:35:20;96049.72;;;11.70;nan
4617;BME280;2321;42.704;23.384;2023-02-28T09:37:48;96051.75;;;11.68;nan
4617;BME280;2321;42.704;23.384;2023-02-28T09:40:16;96050.72;;;11.69;nan
4617;BME280;2321;42.704;23.384;2023-02-28T09:42:47;96050.53;;;11.70;nan
4617;BME280;2321;42.704;23.384;2023-02-28T09:45:24;96052.47;;;11.76;nan
4617;BME280;2321;42.704;23.384;2023-02-28T09:47:54;96049.81;;;11.76;nan
4617;BME280;2321;42.704;23.384;2023-02-28T09:50:32;96044.09;;;11.80;nan
4617;BME280;2321;42.704;23.384;2023-02-28T09:53:03;96048.34;;;11.74;nan
4617;BME280;2321;42.704;23.384;2023-02-28T09:55:33;96045.00;;;11.72;nan
4617;BME280;2321;42.704;23.384;2023-02-28T09:58:00;96045.94;;;11.79;nan
4617;BME280;2321;42.704;23.384;2023-02-28T10:00:32;96040.03;;;11.84;nan
4617;BME280;2321;42.704;23.384;2023-02-28T10:03:28;96041.81;;;11.92;nan
4617;BME280;2321;42.704;23.384;2023-02-28T10:06:00;96038.13;;;11.93;nan
4617;BME280;2321;42.704;23.384;2023-02-28T10:08:33;96026.88;;;11.97;nan
4617;BME280;2321;42.704;23.384;2023-02-28T10:11:09;96024.31;;;12.04;nan
4617;BME280;2321;42.704;23.384;2023-02-28T10:13:41;96028.53;;;12.14;nan
4617;BME280;2321;42.704;23.384;2023-02-28T10:16:17;96028.19;;;12.17;nan
4617;BME280;2321;42.704;23.384;2023-02-28T10:18:51;96036.09;;;12.25;nan
4617;BME280;2321;42.704;23.384;2023-02-28T10:21:21;96033.13;;;12.35;nan
4617;BME280;2321;42.704;23.384;2023-02-28T10:23:53;96027.03;;;12.41;nan
4617;BME280;2321;42.704;23.384;2023-02-28T10:26:22;96024.78;;;12.45;nan
4617;BME280;2321;42.704;23.384;2023-02-28T10:28:53;96026.53;;;12.53;nan
4617;BME280;2321;42.704;23.384;2023-02-28T10:31:20;96023.25;;;12.51;nan
4617;BME280;2321;42.704;23.384;2023-02-28T10:33:49;96026.91;;;12.50;nan
4617;BME280;2321;42.704;23.384;2023-02-28T10:36:19;96013.81;;;12.55;nan
4617;BME280;2321;42.704;23.384;2023-02-28T10:38:48;96016.19;;;12.65;nan
4617;BME280;2321;42.704;23.384;2023-02-28T10:41:17;96006.19;;;12.74;nan
4617;BME280;2321;42.704;23.384;2023-02-28T10:43:53;96007.53;;;12.85;nan
4617;BME280;2321;42.704;23.384;2023-02-28T10:46:39;96003.28;;;12.91;nan
4617;BME280;2321;42.704;23.384;2023-02-28T10:49:13;95999.44;;;13.00;nan
4617;BME280;2321;42.704;23.384;2023-02-28T10:51:41;96003.63;;;13.10;nan
4617;BME280;2321;42.704;23.384;2023-02-28T10:54:16;95998.28;;;13.10;nan
4617;BME280;2321;42.704;23.384;2023-02-28T10:56:44;95995.22;;;13.13;nan
4617;BME280;2321;42.704;23.384;2023-02-28T10:59:30;95986.41;;;13.19;nan
4617;BME280;2321;42.704;23.384;2023-02-28T11:01:57;95987.25;;;13.20;nan
4617;BME280;2321;42.704;23.384;2023-02-28T11:04:35;95981.56;;;13.29;nan
4617;BME280;2321;42.704;23.384;2023-02-28T11:07:06;95964.75;;;13.36;nan
4617;BME280;2321;42.704;23.384;2023-02-28T11:09:44;95971.38;;;13.40;nan
4617;BME280;2321;42.704;23.384;2023-02-28T11:12:20;95977.50;;;13.34;nan
4617;BME280;2321;42.704;23.384;2023-02-28T11:14:49;95972.53;;;13.31;nan
4617;BME280;2321;42.704;23.384;2023-02-28T11:17:21;95975.59;;;13.27;nan
4617;BME280;2321;42.704;23.384;2023-02-28T11:19:51;95979.28;;;13.26;nan
4617;BME280;2321;42.704;23.384;2023-02-28T11:22:21;95970.00;;;13.22;nan
4617;BME280;2321;42.704;23.384;2023-02-28T11:24:51;95967.75;;;13.26;nan
4617;BME280;2321;42.704;23.384;2023-02-28T11:27:42;95963.03;;;13.28;nan
4617;BME280;2321;42.704;23.384;2023-02-28T11:30:27;95957.88;;;13.26;nan
4617;BME280;2321;42.704;23.384;2023-02-28T11:32:54;95953.81;;;13.31;nan
4617;BME280;2321;42.704;23.384;2023-02-28T11:35:25;95957.09;;;13.33;nan
4617;BME280;2321;42.704;23.384;2023-02-28T11:37:52;95956.91;;;13.34;nan
4617;BME280;2321;42.704;23.384;2023-02-28T11:40:27;95950.16;;;13.38;nan
4617;BME280;2321;42.704;23.384;2023-02-28T11:43:01;95957.72;;;13.35;nan
4617;BME280;2321;42.704;23.384;2023-02-28T11:45:43;95957.72;;;13.35;nan
4617;BME280;2321;42.704;23.384;2023-02-28T11:48:18;95959.84;;;13.39;nan
4617;BME280;2321;42.704;23.384;2023-02-28T11:50:54;95958.84;;;13.47;nan
4617;BME280;2321;42.704;23.384;2023-02-28T11:53:35;95950.03;;;13.54;nan
4617;BME280;2321;42.704;23.384;2023-02-28T11:56:11;95939.56;;;13.59;nan
4617;BME280;2321;42.704;23.384;2023-02-28T11:58:48;95941.50;;;13.72;nan
4617;BME280;2321;42.704;23.384;2023-02-28T12:01:28;95946.28;;;13.83;nan
4617;BME280;2321;42.704;23.384;2023-02-28T12:04:09;95945.09;;;13.93;nan
4617;BME280;2321;42.704;23.384;2023-02-28T12:06:45;95941.00;;;13.97;nan
4617;BME280;2321;42.704;23.384;2023-02-28T12:09:32;95954.16;;;13.99;nan
4617;BME280;2321;42.704;23.384;2023-02-28T12:12:15;95949.47;;;14.01;nan
4617;BME280;2321;42.704;23.384;2023-02-28T12:17:50;95943.06;;;14.02;nan
4617;BME280;2321;42.704;23.384;2023-02-28T12:20:26;95941.81;;;14.04;nan
4617;BME280;2321;42.704;23.384;2023-02-28T12:23:03;95943.91;;;14.09;nan
4617;BME280;2321;42.704;23.384;2023-02-28T12:25:51;95943.91;;;14.09;nan
4617;BME280;2321;42.704;23.384;2023-02-28T12:28:25;95939.19;;;14.18;nan
4617;BME280;2321;42.704;23.384;2023-02-28T12:30:56;95943.31;;;14.21;nan
4617;BME280;2321;42.704;23.384;2023-02-28T12:33:27;95940.63;;;14.14;nan
4617;BME280;2321;42.704;23.384;2023-02-28T12:35:58;95941.63;;;14.06;nan
4617;BME280;2321;42.704;23.384;2023-02-28T12:38:29;95939.97;;;14.05;nan
4617;BME280;2321;42.704;23.384;2023-02-28T12:41:03;95935.47;;;14.05;nan
4617;BME280;2321;42.704;23.384;2023-02-28T12:43:34;95933.41;;;14.01;nan
4617;BME280;2321;42.704;23.384;2023-02-28T12:46:09;95929.47;;;13.97;nan
4617;BME280;2321;42.704;23.384;2023-02-28T12:48:39;95925.50;;;13.86;nan
4617;BME280;2321;42.704;23.384;2023-02-28T12:51:08;95930.03;;;13.85;nan
4617;BME280;2321;42.704;23.384;2023-02-28T12:53:47;95926.72;;;13.76;nan
4617;BME280;2321;42.704;23.384;2023-02-28T12:56:19;95926.69;;;13.69;nan
4617;BME280;2321;42.704;23.384;2023-02-28T12:58:50;95920.47;;;13.62;nan
4617;BME280;2321;42.704;23.384;2023-02-28T13:01:39;95921.03;;;13.57;nan
4617;BME280;2321;42.704;23.384;2023-02-28T13:04:27;95930.28;;;13.55;nan
4617;BME280;2321;42.704;23.384;2023-02-28T13:07:15;95920.84;;;13.59;nan
4617;BME280;2321;42.704;23.384;2023-02-28T13:09:55;95917.16;;;13.60;nan
4617;BME280;2321;42.704;23.384;2023-02-28T13:12:23;95923.78;;;13.64;nan
4617;BME280;2321;42.704;23.384;2023-02-28T13:15:04;95918.00;;;13.60;nan
4617;BME280;2321;42.704;23.384;2023-02-28T13:17:32;95927.47;;;13.63;nan
4617;BME280;2321;42.704;23.384;2023-02-28T13:19:59;95919.44;;;13.63;nan
4617;BME280;2321;42.704;23.384;2023-02-28T13:22:38;95914.09;;;13.63;nan
4617;BME280;2321;42.704;23.384;2023-02-28T13:34:41;95915.16;;;13.69;nan
4617;BME280;2321;42.704;23.384;2023-02-28T13:37:33;95913.47;;;13.68;nan
4617;BME280;2321;42.704;23.384;2023-02-28T13:40:27;95912.25;;;13.64;nan
4617;BME280;2321;42.704;23.384;2023-02-28T13:42:54;95909.97;;;13.60;nan
4617;BME280;2321;42.704;23.384;2023-02-28T13:45:26;95913.06;;;13.64;nan
4617;BME280;2321;42.704;23.384;2023-02-28T13:47:55;95907.50;;;13.66;nan
4617;BME280;2321;42.704;23.384;2023-02-28T13:50:28;95907.84;;;13.56;nan
4617;BME280;2321;42.704;23.384;2023-02-28T13:53:31;95899.41;;;13.52;nan
4617;BME280;2321;42.704;23.384;2023-02-28T13:56:06;95895.88;;;13.45;nan
4617;BME280;2321;42.704;23.384;2023-02-28T13:58:41;95897.72;;;13.44;nan
4617;BME280;2321;42.704;23.384;2023-02-28T14:01:33;95896.03;;;13.36;nan
4617;BME280;2321;42.704;23.384;2023-02-28T14:04:21;95906.28;;;13.33;nan
4617;BME280;2321;42.704;23.384;2023-02-28T14:06:57;95910.59;;;13.27;nan
4617;BME280;2321;42.704;23.384;2023-02-28T14:09:27;95906.84;;;13.21;nan
4617;BME280;2321;42.704;23.384;2023-02-28T14:11:55;95903.53;;;13.19;nan
4617;BME280;2321;42.704;23.384;2023-02-28T14:14:53;95904.09;;;13.07;nan
4617;BME280;2321;42.704;23.384;2023-02-28T14:17:21;95914.09;;;12.99;nan
4617;BME280;2321;42.704;23.384;2023-02-28T14:19:48;95908.31;;;12.95;nan